METAR Reports

Area Airport Weather Conditions

KBDL - Windsor Locks, Connecticut, USA
Distance from station: NE 45mi, 72km
Updated: 5:51PM EST, January 21, 2021
Few Clouds
Few Clouds
 Wind from SSE
Wind: SSE 6 mph , 9 km/h
Temperature: 30°F , -1°C
Wind Chill: 24°F , -4°C
Dew Point: 18°F , -8°C
Humidity: 59%
Barometer: 29.62 inHg , 1003 hPa
Clouds: Few Clouds
Visibility: 10 miles , 16 km
Cloud details: Few Clouds 6000 ft
Few Clouds 25000 ft
2021/01/21 22:51 KBDL 212251Z 15005KT 10SM FEW060 FEW250 M01/M08 A2962 RMK AO2 SLP033 T10111083
KDXR - Danbury, Connecticut, USA
Distance from station: SSW 15mi, 24km
Updated: 5:53PM EST, January 21, 2021
Clear
Clear
 Wind from calm
Wind: Calm
Temperature: 28°F , -2°C
Dew Point: 19°F , -7°C
Humidity: 69%
Barometer: 29.64 inHg , 1003.7 hPa
Clouds: Clear
Visibility: 10 miles , 16 km
2021/01/21 22:53 KDXR 212253Z 00000KT 10SM CLR M02/M07 A2964 RMK AO2 SLP042 T10221067
 
KOXC - Oxford/Waterbury, Connecticut, USA
Distance from station: ESE 16mi, 26km
Updated: 5:51PM EST, January 21, 2021
Few Clouds
Few Clouds
 Wind from calm
Wind: Calm
Temperature: 30°F , -1°C
Dew Point: 19°F , -7°C
Humidity: 64%
Barometer: 29.62 inHg , 1003 hPa
Clouds: Few Clouds
Visibility: 10 miles , 16 km
Cloud details: Few Clouds 4600 ft
2021/01/21 22:51 KOXC 212251Z 00000KT 10SM FEW046 M01/M07 A2962 RMK AO2 SLP054 T10111067
KPOU - Poughkeepsie, New York, USA
Distance from station: W 25mi, 40km
Updated: 5:53PM EST, January 21, 2021
Overcast
Overcast
 Wind from calm
Wind: Calm
Temperature: 34°F , 1°C
Dew Point: 21°F , -6°C
Humidity: 60%
Barometer: 29.63 inHg , 1003.4 hPa
Clouds: Overcast
Visibility: 10 miles , 16 km
Cloud details: Overcast 5500 ft
2021/01/21 22:53 KPOU 212253Z AUTO 00000KT 10SM OVC055 01/M06 A2963 RMK AO2 SLP032 T00061061 TSNO
 
KMMK - Meriden, Connecticut, USA
Distance from station: E 30mi, 48km
Updated: 5:53PM EST, January 21, 2021
Mostly cloudy
Mostly cloudy
 Wind from calm
Wind: Calm
Temperature: 30°F , -1°C
Dew Point: 19°F , -7°C
Humidity: 64%
Barometer: 29.64 inHg , 1003.7 hPa
Clouds: Mostly cloudy
Visibility: 10 miles , 16 km
Cloud details: Mostly cloudy 5000 ft
2021/01/21 22:53 KMMK 212253Z AUTO 00000KT 10SM BKN050 M01/M07 A2964 RMK AO2 SLP041 T10111072
KBDR - Bridgeport, Connecticut, USA
Distance from station: SSE 32mi, 51km
Updated: 5:52PM EST, January 21, 2021
Clear
Clear
 Wind from calm
Wind: Calm
Temperature: 37°F , 3°C
Dew Point: 21°F , -6°C
Humidity: 52%
Barometer: 29.65 inHg , 1004.1 hPa
Clouds: Clear
Visibility: 10 miles , 16 km
2021/01/21 22:52 KBDR 212252Z 00000KT 10SM CLR 03/M06 A2965 RMK AO2 SLP038 T00281061
 
KHVN - New Haven/Tweed, Connecticut, USA
Distance from station: SE 35mi, 57km
Updated: 5:53PM EST, January 21, 2021
Clear
Clear
 Wind from calm
Wind: Calm
Temperature: 30°F , -1°C
Dew Point: 21°F , -6°C
Humidity: 69%
Barometer: 29.64 inHg , 1003.7 hPa
Clouds: Clear
Visibility: 10 miles , 16 km
2021/01/21 22:53 KHVN 212253Z 00000KT 10SM CLR M01/M06 A2964 RMK AO2 SLP036 T10111061
KSWF - Newburgh/Stewart, New York, USA
Distance from station: W 35mi, 57km
Updated: 6:45PM EST, January 21, 2021
Mostly cloudy
Mostly cloudy
 Wind from varies
Wind: varies 3 mph , 6 km/h
Temperature: 30°F , -1°C
Dew Point: 23°F , -5°C
Humidity: 75%
Barometer: 29.63 inHg , 1003.4 hPa
Clouds: Mostly cloudy
Visibility: 10 miles , 16 km
Cloud details: Mostly cloudy 4000 ft
2021/01/21 23:45 KSWF 212345Z VRB03KT 10SM BKN040 M01/M05 A2963
 
KHPN - White Plains, New York, USA
Distance from station: SSW 38mi, 62km
Updated: 5:56PM EST, January 21, 2021
Clear
Clear
 Wind from WNW
Wind: WNW 3 mph , 6 km/h
Temperature: 34°F , 1°C
Dew Point: 19°F , -7°C
Humidity: 56%
Barometer: 29.62 inHg , 1003 hPa
Clouds: Clear
Visibility: 10 miles , 16 km
2021/01/21 22:56 KHPN 212256Z 29003KT 10SM CLR 01/M07 A2962 RMK AO2 SLP041 T00111072
KHFD - Hartford/Brainar, Connecticut, USA
Distance from station: ENE 41mi, 65km
Updated: 5:53PM EST, January 21, 2021
Clear
Clear
 Wind from S
Wind: S 3 mph , 6 km/h
Temperature: 30°F , -1°C
Dew Point: 19°F , -7°C
Humidity: 64%
Barometer: 29.64 inHg , 1003.7 hPa
Clouds: Clear
Visibility: 10 miles , 16 km
2021/01/21 22:53 KHFD 212253Z 19003KT 10SM CLR M01/M07 A2964 RMK AO2 SLP037 T10061072